Time;durP1;ratioP1;P1;durP2;ratioP2;P2;SDS_P1;SDS_P2;PMS_P1;PMS_P2;Temp;Humidity;BMP_temperature;BMP_pressure;BME280_temperature;BME280_humidity;BME280_pressure;Samples;Min_cycle;Max_cycle;Signal;HPM_P1;HPM_P2
2022/08/27 00:03:16;;;;;;;7.35;5.65;;;;;;;;;;10072078;29;20466;-89
2022/08/27 00:08:20;;;;;;;6.70;5.67;;;;;;;;;;10070108;29;20444;-89
2022/08/27 00:13:22;;;;;;;7.50;6.30;;;;;;;;;;10075140;29;20466;-89
2022/08/27 00:18:26;;;;;;;7.00;6.30;;;;;;;;;;10082963;29;20411;-89
2022/08/27 00:23:28;;;;;;;7.22;5.93;;;;;;;;;;10080546;29;20439;-90
2022/08/27 00:28:36;;;;;;;6.38;5.18;;;;;;;;;;10091300;29;20438;-90
2022/08/27 00:33:40;;;;;;;8.93;5.60;;;;;;;;;;10079906;29;20498;-90
2022/08/27 00:38:43;;;;;;;7.47;5.32;;;;;;;;;;10078237;29;20483;-89
2022/08/27 00:43:48;;;;;;;6.40;4.90;;;;;;;;;;10084923;29;20462;-90
2022/08/27 00:48:57;;;;;;;6.75;5.05;;;;;;;;;;10079870;29;20472;-90
2022/08/27 00:54:02;;;;;;;7.00;4.10;;;;;;;;;;10087125;29;20429;-90
2022/08/27 00:59:04;;;;;;;5.95;4.40;;;;;;;;;;10085871;29;20448;-90
2022/08/27 01:04:09;;;;;;;4.30;3.88;;;;;;;;;;10083224;29;20437;-89
2022/08/27 01:09:17;;;;;;;5.60;4.10;;;;;;;;;;10079867;29;20459;-89
2022/08/27 01:14:19;;;;;;;5.03;3.80;;;;;;;;;;10080446;29;20434;-90
2022/08/27 01:19:28;;;;;;;4.32;3.60;;;;;;;;;;10078848;29;20893;-90
2022/08/27 01:24:36;;;;;;;4.37;3.70;;;;;;;;;;10080347;29;20816;-89
2022/08/27 01:29:38;;;;;;;6.15;4.03;;;;;;;;;;10093201;29;20460;-90
2022/08/27 01:34:40;;;;;;;5.25;3.92;;;;;;;;;;10115416;29;20430;-89
2022/08/27 01:39:44;;;;;;;6.55;4.00;;;;;;;;;;10078402;29;20518;-90
2022/08/27 01:44:51;;;;;;;7.07;4.13;;;;;;;;;;10079424;29;20437;-90
2022/08/27 01:50:00;;;;;;;5.20;4.00;;;;;;;;;;10073499;29;20858;-89
2022/08/27 01:55:07;;;;;;;5.00;3.90;;;;;;;;;;10080420;29;20415;-89
2022/08/27 02:00:12;;;;;;;6.07;4.20;;;;;;;;;;10081763;29;20494;-90
2022/08/27 02:05:14;;;;;;;7.72;5.60;;;;;;;;;;10077863;29;20490;-90
2022/08/27 02:10:21;;;;;;;7.22;5.38;;;;;;;;;;10089135;29;20424;-89
2022/08/27 02:15:24;;;;;;;8.63;5.85;;;;;;;;;;10111183;29;20444;-89
2022/08/27 02:20:27;;;;;;;7.28;5.00;;;;;;;;;;10080272;29;20459;-89
2022/08/27 02:25:30;;;;;;;6.93;5.10;;;;;;;;;;10083155;29;20980;-89
2022/08/27 02:30:34;;;;;;;7.97;5.23;;;;;;;;;;10085202;29;20455;-89
2022/08/27 02:35:41;;;;;;;7.03;4.80;;;;;;;;;;10078148;29;20832;-89
2022/08/27 02:40:44;;;;;;;6.75;4.82;;;;;;;;;;10075349;29;20904;-89
2022/08/27 02:45:46;;;;;;;6.28;4.75;;;;;;;;;;10078413;29;20448;-90
2022/08/27 02:50:48;;;;;;;5.93;4.50;;;;;;;;;;10079037;29;20473;-90
2022/08/27 02:55:52;;;;;;;6.37;4.50;;;;;;;;;;10072234;29;20478;-89
2022/08/27 03:00:55;;;;;;;6.03;4.50;;;;;;;;;;10081717;29;20431;-88
2022/08/27 03:05:58;;;;;;;11.45;5.10;;;;;;;;;;10077089;29;20467;-89
2022/08/27 03:11:02;;;;;;;10.13;4.20;;;;;;;;;;10074812;29;20442;-89
2022/08/27 03:16:04;;;;;;;5.25;4.25;;;;;;;;;;10084394;29;20456;-89
2022/08/27 03:21:09;;;;;;;4.95;4.30;;;;;;;;;;10072653;29;20421;-89
2022/08/27 03:26:12;;;;;;;7.90;4.90;;;;;;;;;;10074028;29;20442;-90
2022/08/27 03:31:25;;;;;;;6.30;4.67;;;;;;;;;;10078169;29;20550;-89
2022/08/27 03:36:30;;;;;;;6.53;4.38;;;;;;;;;;10074422;29;20483;-89
2022/08/27 03:41:33;;;;;;;5.23;4.40;;;;;;;;;;10082520;29;20473;-89
2022/08/27 03:46:35;;;;;;;7.82;4.68;;;;;;;;;;10076314;29;20579;-89
2022/08/27 03:51:38;;;;;;;7.57;5.35;;;;;;;;;;10080600;29;20700;-89
2022/08/27 03:56:42;;;;;;;8.33;4.90;;;;;;;;;;10085818;29;20584;-89
2022/08/27 04:01:44;;;;;;;9.20;5.40;;;;;;;;;;10082530;29;20456;-89
2022/08/27 04:06:47;;;;;;;9.60;5.65;;;;;;;;;;10081375;29;20476;-90
2022/08/27 04:11:50;;;;;;;10.00;6.47;;;;;;;;;;10093894;29;20501;-90
2022/08/27 04:16:53;;;;;;;12.65;7.10;;;;;;;;;;10079122;29;20494;-89
2022/08/27 04:21:59;;;;;;;11.57;6.97;;;;;;;;;;10079219;29;20903;-90
2022/08/27 04:27:03;;;;;;;10.07;7.03;;;;;;;;;;10084699;29;20920;-89
2022/08/27 04:32:05;;;;;;;9.77;6.68;;;;;;;;;;10078514;29;20453;-90
2022/08/27 04:37:07;;;;;;;12.63;7.35;;;;;;;;;;10073413;29;20507;-90
2022/08/27 04:42:10;;;;;;;12.23;7.00;;;;;;;;;;10091169;29;20489;-90
2022/08/27 04:47:13;;;;;;;14.13;7.22;;;;;;;;;;10077201;29;20525;-90
2022/08/27 04:52:15;;;;;;;13.67;7.87;;;;;;;;;;10078398;29;20507;-89
2022/08/27 04:57:19;;;;;;;12.27;7.20;;;;;;;;;;10089059;29;20453;-90
2022/08/27 05:02:21;;;;;;;10.20;7.20;;;;;;;;;;10076162;29;20462;-89
2022/08/27 05:07:23;;;;;;;11.98;7.07;;;;;;;;;;10076367;29;20463;-90
2022/08/27 05:12:26;;;;;;;10.65;6.95;;;;;;;;;;10088107;29;20450;-90
2022/08/27 05:17:30;;;;;;;10.43;6.65;;;;;;;;;;10076547;29;20450;-89
2022/08/27 05:22:32;;;;;;;11.05;7.18;;;;;;;;;;10074001;29;20432;-89
2022/08/27 05:27:35;;;;;;;9.70;6.25;;;;;;;;;;10080766;29;20436;-89
2022/08/27 05:32:37;;;;;;;11.10;6.50;;;;;;;;;;10075895;29;20480;-89
2022/08/27 05:37:39;;;;;;;7.47;6.23;;;;;;;;;;10080126;29;20416;-89
2022/08/27 05:42:42;;;;;;;11.43;6.63;;;;;;;;;;10080825;29;20511;-90
2022/08/27 05:47:44;;;;;;;10.88;6.90;;;;;;;;;;10097969;29;20462;-90
2022/08/27 05:52:46;;;;;;;10.10;7.10;;;;;;;;;;10081161;29;20468;-90
2022/08/27 05:57:50;;;;;;;9.52;6.60;;;;;;;;;;10087591;29;20496;-90
2022/08/27 06:02:52;;;;;;;15.32;6.65;;;;;;;;;;10071216;29;20725;-90
2022/08/27 06:07:54;;;;;;;11.60;7.20;;;;;;;;;;10073710;29;20526;-89
2022/08/27 06:12:57;;;;;;;9.70;6.22;;;;;;;;;;10076146;29;20452;-89
2022/08/27 06:18:00;;;;;;;9.10;6.27;;;;;;;;;;10075037;29;20867;-90
2022/08/27 06:23:02;;;;;;;9.43;6.63;;;;;;;;;;10079591;29;20425;-90
2022/08/27 06:28:05;;;;;;;8.73;6.20;;;;;;;;;;10083470;29;20797;-90
2022/08/27 06:33:07;;;;;;;9.68;6.20;;;;;;;;;;10075413;29;20829;-90
2022/08/27 06:38:09;;;;;;;13.25;6.40;;;;;;;;;;10073883;29;20428;-89
2022/08/27 06:43:12;;;;;;;10.18;6.57;;;;;;;;;;10077990;29;20484;-89
2022/08/27 06:48:14;;;;;;;10.27;6.63;;;;;;;;;;10073972;29;20461;-89
2022/08/27 06:53:16;;;;;;;8.80;6.32;;;;;;;;;;10068574;29;20864;-90
2022/08/27 06:58:20;;;;;;;9.45;6.53;;;;;;;;;;10074087;29;20437;-90
2022/08/27 07:03:21;;;;;;;8.57;6.10;;;;;;;;;;10072471;29;20515;-89
2022/08/27 07:08:23;;;;;;;10.68;6.00;;;;;;;;;;10067841;29;20524;-90
2022/08/27 07:13:28;;;;;;;7.68;5.80;;;;;;;;;;10067779;29;20454;-90
2022/08/27 07:18:30;;;;;;;7.37;5.87;;;;;;;;;;10072321;29;20426;-89
2022/08/27 07:23:33;;;;;;;9.00;6.30;;;;;;;;;;10069509;29;20898;-90
2022/08/27 07:28:37;;;;;;;8.38;6.00;;;;;;;;;;10082480;29;20453;-90
2022/08/27 07:33:40;;;;;;;6.25;5.63;;;;;;;;;;10072690;29;20414;-90
2022/08/27 07:38:42;;;;;;;7.25;5.22;;;;;;;;;;10071089;29;20509;-89
2022/08/27 07:49:05;;;;;;;7.75;5.60;;;;;;;;;;10073037;29;20409;-89
2022/08/27 07:54:07;;;;;;;7.88;5.60;;;;;;;;;;10070664;29;20503;-89
2022/08/27 07:59:11;;;;;;;9.20;5.47;;;;;;;;;;10078642;29;20420;-89
2022/08/27 08:04:12;;;;;;;6.32;5.22;;;;;;;;;;10070928;29;20423;-90
2022/08/27 08:09:15;;;;;;;7.95;5.55;;;;;;;;;;10071237;29;20543;-90
2022/08/27 08:14:19;;;;;;;5.88;5.03;;;;;;;;;;10086316;29;20450;-90
2022/08/27 08:19:20;;;;;;;6.45;4.90;;;;;;;;;;10070592;29;20452;-90
2022/08/27 08:24:22;;;;;;;7.35;5.15;;;;;;;;;;10072007;29;20430;-90
2022/08/27 08:29:26;;;;;;;6.40;4.93;;;;;;;;;;10082750;29;20876;-90
2022/08/27 08:34:28;;;;;;;7.83;4.90;;;;;;;;;;10069872;29;20513;-90
2022/08/27 08:39:30;;;;;;;7.63;5.28;;;;;;;;;;10073229;29;20447;-90
2022/08/27 08:44:37;;;;;;;9.47;5.57;;;;;;;;;;10082571;29;20477;-90
2022/08/27 08:49:46;;;;;;;8.87;5.33;;;;;;;;;;10077835;29;20415;-90
2022/08/27 08:54:50;;;;;;;7.32;5.40;;;;;;;;;;10079859;29;21017;-90
2022/08/27 09:00:01;;;;;;;9.07;5.10;;;;;;;;;;10082892;29;20432;-90
2022/08/27 09:05:05;;;;;;;7.97;5.32;;;;;;;;;;10072832;29;20459;-90
2022/08/27 09:10:18;;;;;;;6.40;5.15;;;;;;;;;;10078589;29;20450;-90
2022/08/27 09:15:24;;;;;;;6.70;4.57;;;;;;;;;;10085713;29;20578;-91
2022/08/27 09:20:27;;;;;;;7.13;4.93;;;;;;;;;;10073337;29;20413;-90
2022/08/27 09:25:32;;;;;;;7.13;4.90;;;;;;;;;;10080319;29;20458;-90
2022/08/27 09:30:43;;;;;;;6.25;5.30;;;;;;;;;;10079530;29;20459;-90
2022/08/27 09:35:47;;;;;;;7.53;5.50;;;;;;;;;;10074810;29;20523;-90
2022/08/27 09:40:51;;;;;;;14.93;5.35;;;;;;;;;;10071836;29;20428;-90
2022/08/27 09:45:56;;;;;;;7.28;5.28;;;;;;;;;;10076559;29;20527;-90
2022/08/27 09:51:01;;;;;;;7.20;5.45;;;;;;;;;;10075655;29;20515;-90
2022/08/27 09:56:06;;;;;;;7.82;5.53;;;;;;;;;;10079789;29;20953;-91
2022/08/27 10:01:18;;;;;;;8.35;5.90;;;;;;;;;;10083755;29;20424;-90
2022/08/27 10:06:27;;;;;;;6.40;4.80;;;;;;;;;;10080796;29;20470;-90
2022/08/27 10:11:32;;;;;;;7.23;4.43;;;;;;;;;;10067703;29;20427;-90
2022/08/27 10:16:51;;;;;;;6.40;4.25;;;;;;;;;;10083551;29;20427;-90
2022/08/27 10:22:00;;;;;;;4.73;4.00;;;;;;;;;;10070736;29;20430;-90
2022/08/27 10:27:12;;;;;;;5.68;4.28;;;;;;;;;;10078500;29;20466;-91
2022/08/27 10:32:38;;;;;;;7.53;4.18;;;;;;;;;;10073712;29;20581;-90
2022/08/27 10:37:51;;;;;;;6.17;4.17;;;;;;;;;;10072447;29;20496;-90
2022/08/27 10:43:03;;;;;;;8.85;4.93;;;;;;;;;;10078388;29;20523;-91
2022/08/27 10:48:17;;;;;;;6.70;4.43;;;;;;;;;;10072520;29;20441;-91
2022/08/27 10:53:30;;;;;;;5.00;4.22;;;;;;;;;;10080640;29;20452;-90
2022/08/27 10:58:40;;;;;;;5.88;4.05;;;;;;;;;;10083618;29;20499;-90
2022/08/27 11:03:49;;;;;;;6.32;4.13;;;;;;;;;;10073518;29;20427;-91
2022/08/27 11:08:56;;;;;;;6.25;4.40;;;;;;;;;;10072519;29;20977;-91
2022/08/27 11:13:59;;;;;;;4.57;4.10;;;;;;;;;;10092151;29;20490;-91
2022/08/27 11:19:08;;;;;;;8.13;5.10;;;;;;;;;;10098028;29;20425;-90
2022/08/27 11:24:22;;;;;;;6.05;4.38;;;;;;;;;;10116855;29;20509;-90
2022/08/27 11:29:30;;;;;;;6.27;4.70;;;;;;;;;;10078700;29;20438;-90
2022/08/27 11:34:42;;;;;;;7.63;4.00;;;;;;;;;;10069896;29;20424;-90
2022/08/27 11:39:56;;;;;;;5.10;3.83;;;;;;;;;;10071285;29;20664;-89
2022/08/27 11:45:06;;;;;;;5.63;3.58;;;;;;;;;;10069173;29;20853;-90
2022/08/27 11:50:19;;;;;;;4.93;3.80;;;;;;;;;;10070292;29;20509;-89
2022/08/27 11:55:27;;;;;;;7.60;4.00;;;;;;;;;;10071848;29;20520;-91
2022/08/27 12:00:32;;;;;;;9.95;4.40;;;;;;;;;;10077720;29;20454;-91
2022/08/27 12:05:41;;;;;;;6.30;4.00;;;;;;;;;;10070268;29;20432;-91
2022/08/27 12:10:58;;;;;;;6.53;4.10;;;;;;;;;;10077769;29;20506;-91
2022/08/27 12:16:11;;;;;;;5.50;4.00;;;;;;;;;;10086035;29;20514;-91
2022/08/27 12:21:22;;;;;;;4.60;3.92;;;;;;;;;;10079030;29;20427;-91
2022/08/27 12:26:33;;;;;;;6.18;4.43;;;;;;;;;;10077887;29;20528;-91
2022/08/27 12:31:37;;;;;;;5.10;4.13;;;;;;;;;;10077895;29;20509;-90
2022/08/27 12:36:40;;;;;;;6.33;4.23;;;;;;;;;;10080455;29;20430;-90
2022/08/27 12:41:46;;;;;;;6.32;3.90;;;;;;;;;;10078923;29;20442;-90
2022/08/27 12:46:51;;;;;;;4.50;3.50;;;;;;;;;;10078854;29;20862;-90
2022/08/27 12:51:55;;;;;;;5.97;3.03;;;;;;;;;;10070808;29;20417;-90
2022/08/27 12:57:04;;;;;;;4.83;2.80;;;;;;;;;;10082598;29;20462;-90
2022/08/27 13:02:20;;;;;;;3.10;2.45;;;;;;;;;;10077063;29;20932;-89
2022/08/27 13:07:28;;;;;;;2.67;2.30;;;;;;;;;;10072610;29;20439;-89
2022/08/27 13:12:30;;;;;;;3.60;2.40;;;;;;;;;;10083912;29;20419;-89
2022/08/27 13:17:36;;;;;;;2.80;2.33;;;;;;;;;;10075465;29;20458;-88
2022/08/27 13:22:42;;;;;;;2.67;2.10;;;;;;;;;;10072272;29;20511;-88
2022/08/27 13:27:53;;;;;;;4.23;2.10;;;;;;;;;;10078861;29;20547;-89
2022/08/27 13:32:56;;;;;;;3.33;2.10;;;;;;;;;;10073276;29;20424;-89
2022/08/27 13:38:01;;;;;;;2.80;2.30;;;;;;;;;;10077526;29;20417;-89
2022/08/27 13:43:08;;;;;;;2.70;2.30;;;;;;;;;;10076321;29;20460;-89
2022/08/27 13:48:13;;;;;;;4.97;2.42;;;;;;;;;;10078456;29;20519;-89
2022/08/27 13:58:40;;;;;;;3.83;2.58;;;;;;;;;;10079205;29;20418;-89
2022/08/27 14:03:49;;;;;;;3.28;2.70;;;;;;;;;;10073578;29;20789;-88
2022/08/27 14:08:52;;;;;;;4.38;2.45;;;;;;;;;;10072935;29;20515;-89
2022/08/27 14:13:57;;;;;;;4.30;3.00;;;;;;;;;;10073483;29;20464;-89
2022/08/27 14:19:05;;;;;;;5.00;3.80;;;;;;;;;;10072711;29;20425;-89
2022/08/27 14:24:10;;;;;;;4.53;3.65;;;;;;;;;;10072906;29;20456;-89
2022/08/27 14:29:12;;;;;;;5.63;3.38;;;;;;;;;;10077027;29;20530;-89
2022/08/27 14:34:16;;;;;;;6.25;3.92;;;;;;;;;;10072386;29;20455;-89
2022/08/27 14:39:22;;;;;;;3.95;3.55;;;;;;;;;;10065003;29;20481;-89
2022/08/27 14:44:24;;;;;;;5.47;3.90;;;;;;;;;;10077347;29;20423;-89
2022/08/27 14:49:30;;;;;;;4.00;2.80;;;;;;;;;;10072220;29;20430;-89
2022/08/27 14:54:34;;;;;;;3.93;3.03;;;;;;;;;;10072367;29;20427;-89
2022/08/27 14:59:37;;;;;;;3.95;2.95;;;;;;;;;;10079121;29;20515;-89
2022/08/27 15:04:39;;;;;;;4.90;2.90;;;;;;;;;;10072955;29;20456;-89
2022/08/27 15:09:43;;;;;;;4.15;3.00;;;;;;;;;;10073206;29;20531;-89
2022/08/27 15:14:45;;;;;;;4.57;2.90;;;;;;;;;;10078940;29;20400;-89
2022/08/27 15:19:48;;;;;;;4.00;3.07;;;;;;;;;;10074976;29;20510;-89
2022/08/27 15:24:56;;;;;;;4.13;2.80;;;;;;;;;;10071396;29;20900;-89
2022/08/27 15:29:58;;;;;;;3.60;2.80;;;;;;;;;;10076414;29;20829;-89
2022/08/27 15:35:03;;;;;;;3.47;2.70;;;;;;;;;;10068236;29;20411;-90
2022/08/27 15:40:08;;;;;;;3.65;2.80;;;;;;;;;;10069182;29;20424;-89
2022/08/27 15:45:12;;;;;;;3.50;2.90;;;;;;;;;;10085377;29;20429;-89
2022/08/27 15:50:14;;;;;;;4.05;2.70;;;;;;;;;;10078730;29;20417;-89
2022/08/27 15:55:23;;;;;;;3.63;3.00;;;;;;;;;;10079273;29;20989;-89
2022/08/27 16:00:27;;;;;;;6.27;2.80;;;;;;;;;;10075843;29;20566;-90
2022/08/27 16:05:33;;;;;;;3.28;2.63;;;;;;;;;;10079391;29;20484;-89
2022/08/27 16:10:37;;;;;;;4.60;3.07;;;;;;;;;;10078895;29;20505;-90
2022/08/27 16:15:40;;;;;;;2.97;2.65;;;;;;;;;;10087171;29;20423;-90
2022/08/27 16:20:42;;;;;;;4.43;3.00;;;;;;;;;;10078393;29;20507;-89
2022/08/27 16:25:45;;;;;;;5.35;4.07;;;;;;;;;;10077354;29;20432;-90
2022/08/27 16:30:48;;;;;;;6.88;4.05;;;;;;;;;;10086637;29;20527;-89
2022/08/27 16:35:50;;;;;;;6.25;4.05;;;;;;;;;;10081657;29;20421;-89
2022/08/27 16:40:54;;;;;;;6.47;4.20;;;;;;;;;;10079198;29;20952;-89
2022/08/27 16:46:00;;;;;;;5.10;4.32;;;;;;;;;;10084563;29;20512;-88
2022/08/27 16:51:04;;;;;;;6.80;4.43;;;;;;;;;;10075604;29;20519;-89
2022/08/27 16:56:08;;;;;;;5.93;4.40;;;;;;;;;;10074704;29;20444;-89
2022/08/27 17:01:12;;;;;;;6.25;4.43;;;;;;;;;;10083101;29;20497;-89
2022/08/27 17:06:14;;;;;;;7.13;4.15;;;;;;;;;;10108745;29;20424;-89
2022/08/27 17:11:20;;;;;;;7.28;4.75;;;;;;;;;;10088394;29;20425;-89
2022/08/27 17:16:24;;;;;;;6.43;4.87;;;;;;;;;;10079414;29;20457;-89
2022/08/27 17:21:29;;;;;;;4.70;4.20;;;;;;;;;;10075021;29;20938;-88
2022/08/27 17:26:33;;;;;;;5.37;3.87;;;;;;;;;;10079842;29;20437;-89
2022/08/27 17:31:37;;;;;;;7.13;4.28;;;;;;;;;;10082255;29;20499;-89
2022/08/27 17:36:39;;;;;;;5.10;4.20;;;;;;;;;;10082521;29;20494;-88
2022/08/27 17:41:44;;;;;;;5.68;3.70;;;;;;;;;;10073574;29;20457;-89
2022/08/27 17:46:46;;;;;;;5.45;4.10;;;;;;;;;;10074258;29;20532;-89
2022/08/27 17:51:50;;;;;;;4.93;3.83;;;;;;;;;;10073461;29;20537;-89
2022/08/27 17:56:53;;;;;;;6.50;4.18;;;;;;;;;;10082314;29;20510;-89
2022/08/27 18:01:56;;;;;;;4.95;3.88;;;;;;;;;;10072967;29;20854;-90
2022/08/27 18:06:58;;;;;;;6.40;4.40;;;;;;;;;;10071876;29;20441;-89
2022/08/27 18:12:01;;;;;;;5.32;4.10;;;;;;;;;;10073538;29;20423;-89
2022/08/27 18:17:03;;;;;;;5.83;4.00;;;;;;;;;;10072824;29;20786;-89
2022/08/27 18:22:04;;;;;;;5.03;3.97;;;;;;;;;;10072456;29;21011;-89
2022/08/27 18:27:08;;;;;;;5.85;3.83;;;;;;;;;;10088359;29;20520;-90
2022/08/27 18:32:10;;;;;;;6.70;4.50;;;;;;;;;;10070647;29;20451;-75
2022/08/27 18:37:12;;;;;;;8.32;4.10;;;;;;;;;;10071875;29;20517;-85
2022/08/27 18:42:15;;;;;;;5.90;4.37;;;;;;;;;;10072856;29;20954;-83
2022/08/27 18:47:18;;;;;;;7.05;4.50;;;;;;;;;;10062989;29;20972;-80
2022/08/27 18:52:22;;;;;;;7.18;4.40;;;;;;;;;;10066245;29;20501;-87
2022/08/27 18:57:26;;;;;;;5.65;4.53;;;;;;;;;;10075467;29;20425;-85
2022/08/27 19:02:28;;;;;;;7.67;4.77;;;;;;;;;;10068548;29;20978;-87
2022/08/27 19:07:49;;;;;;;6.35;4.30;;;;;;;;;;10069791;29;20801;-89
2022/08/27 19:12:53;;;;;;;7.60;4.70;;;;;;;;;;10086122;29;20457;-90
2022/08/27 19:23:15;;;;;;;7.57;5.27;;;;;;;;;;10074562;29;20939;-86
2022/08/27 19:28:22;;;;;;;7.30;5.50;;;;;;;;;;10083174;29;21041;-84
2022/08/27 19:33:24;;;;;;;7.90;5.38;;;;;;;;;;10083643;29;20513;-86
2022/08/27 19:38:28;;;;;;;9.88;6.10;;;;;;;;;;10075786;29;20862;-87
2022/08/27 19:43:31;;;;;;;11.52;5.90;;;;;;;;;;10076244;29;20446;-87
2022/08/27 19:48:33;;;;;;;8.02;5.80;;;;;;;;;;10062742;29;20443;-88
2022/08/27 19:53:35;;;;;;;9.07;5.53;;;;;;;;;;10071998;29;20522;-88
2022/08/27 19:58:39;;;;;;;7.13;5.43;;;;;;;;;;10075433;29;20813;-88
2022/08/27 20:03:41;;;;;;;8.02;5.45;;;;;;;;;;10071411;29;20411;-86
2022/08/27 20:08:43;;;;;;;8.50;5.63;;;;;;;;;;10073378;29;20531;-87
2022/08/27 20:13:46;;;;;;;7.32;5.03;;;;;;;;;;10074147;29;20520;-87
2022/08/27 20:18:48;;;;;;;7.70;5.27;;;;;;;;;;10072410;29;20411;-88
2022/08/27 20:23:50;;;;;;;7.17;5.30;;;;;;;;;;10071232;29;20427;-88
2022/08/27 20:28:53;;;;;;;7.40;5.43;;;;;;;;;;10068784;29;20512;-88
2022/08/27 20:33:55;;;;;;;7.38;5.50;;;;;;;;;;10079139;29;20971;-88
2022/08/27 20:38:57;;;;;;;7.85;5.60;;;;;;;;;;10075536;29;20499;-87
2022/08/27 20:44:01;;;;;;;9.52;5.85;;;;;;;;;;10078521;29;20435;-87
2022/08/27 20:49:03;;;;;;;7.17;5.80;;;;;;;;;;10069241;29;20531;-87
2022/08/27 20:54:05;;;;;;;8.70;5.68;;;;;;;;;;10079236;29;20515;-87
2022/08/27 21:04:37;;;;;;;8.30;6.05;;;;;;;;;;10037650;29;20410;-88
2022/08/27 21:09:39;;;;;;;6.80;5.60;;;;;;;;;;10065261;29;20455;-87
2022/08/27 21:14:43;;;;;;;7.85;5.90;;;;;;;;;;10077102;29;20518;-87
2022/08/27 21:19:44;;;;;;;7.82;5.63;;;;;;;;;;10084370;29;20423;-87
2022/08/27 21:24:47;;;;;;;7.07;5.78;;;;;;;;;;10079578;29;20421;-87
2022/08/27 21:29:50;;;;;;;6.85;5.75;;;;;;;;;;10081371;29;20444;-87
2022/08/27 21:34:52;;;;;;;9.82;6.18;;;;;;;;;;10068001;29;20410;-84
2022/08/27 21:39:54;;;;;;;8.80;6.47;;;;;;;;;;10066646;29;20419;-88
2022/08/27 21:44:57;;;;;;;10.53;7.27;;;;;;;;;;10066116;29;20427;-87
2022/08/27 21:49:59;;;;;;;9.55;7.30;;;;;;;;;;10063981;29;20440;-87
2022/08/27 21:55:02;;;;;;;9.93;6.43;;;;;;;;;;10066860;29;20424;-87
2022/08/27 22:00:15;;;;;;;9.70;7.05;;;;;;;;;;10075754;29;20422;-87
2022/08/27 22:05:17;;;;;;;10.75;6.60;;;;;;;;;;10069248;29;20471;-87
2022/08/27 22:10:19;;;;;;;9.93;6.75;;;;;;;;;;10061750;29;20425;-85
2022/08/27 22:15:22;;;;;;;8.70;6.40;;;;;;;;;;10070506;29;20415;-87
2022/08/27 22:20:24;;;;;;;10.07;7.13;;;;;;;;;;10073231;29;20835;-87
2022/08/27 22:25:27;;;;;;;9.55;7.38;;;;;;;;;;10075660;29;20830;-87
2022/08/27 22:30:30;;;;;;;11.03;7.13;;;;;;;;;;10075311;29;20517;-87
2022/08/27 22:35:32;;;;;;;9.10;6.90;;;;;;;;;;10066254;29;20839;-87
2022/08/27 22:40:35;;;;;;;10.32;7.13;;;;;;;;;;10082037;29;20493;-86
2022/08/27 22:45:38;;;;;;;10.40;7.30;;;;;;;;;;10075623;29;20772;-86
2022/08/27 22:50:40;;;;;;;10.70;7.20;;;;;;;;;;10076553;29;20561;-87
2022/08/27 22:55:41;;;;;;;10.23;6.43;;;;;;;;;;10079928;29;20931;-85
2022/08/27 23:00:46;;;;;;;9.50;6.67;;;;;;;;;;10073644;29;20434;-86
2022/08/27 23:05:48;;;;;;;10.02;7.00;;;;;;;;;;10078441;29;20447;-86
2022/08/27 23:10:51;;;;;;;10.98;7.00;;;;;;;;;;10081800;29;20474;-87
2022/08/27 23:15:55;;;;;;;10.45;7.00;;;;;;;;;;10083422;29;20429;-87
2022/08/27 23:20:57;;;;;;;11.23;8.20;;;;;;;;;;10082279;29;20407;-87
2022/08/27 23:31:19;;;;;;;10.07;7.27;;;;;;;;;;10067349;29;20430;-86
2022/08/27 23:36:22;;;;;;;9.98;7.15;;;;;;;;;;10065758;29;20510;-86
2022/08/27 23:41:25;;;;;;;11.15;8.10;;;;;;;;;;10065442;29;20421;-86
2022/08/27 23:46:29;;;;;;;9.97;8.23;;;;;;;;;;10071518;29;20473;-86
2022/08/27 23:51:31;;;;;;;11.23;8.02;;;;;;;;;;10068026;29;20440;-87
2022/08/27 23:56:33;;;;;;;11.38;7.60;;;;;;;;;;10066937;29;20448;-87
